Ana Sayfa
METAR-TAF:

METAR-TAF

Havaalanları :

Sonora Municipal Airport

Sonora, Teksas, Amerika Birleşik Devletleri

Enlem: 30-35-08N, Boylam: 100-38-54W, yükseklik: 652 m

Güncel hava durumu gözlemi

Rapor saat 18:35 UTC de 28 dakika önce yapıldı.
Rüzgar güneydan 11 kt ve 16 kt'a kadar ani rüzgarlar
Sıcaklık 33°C
Nem 46%
Basınç 1013 hPa
Görüş mesafesi: 16.1 km
Açık gökyüzü

METAR: KSOA 191835Z AUTO 19011G16KT 10SM CLR 33/20 A2991 RMK AO2

Saat: 14:03 (19:03 UTC)

Tahmin

Rapor saat 17:20 UTC de 1 saat ve 43 dakika önce yapıldı.
Ayın 19'si saat 18 UTC'den ayın 20'si saat 18 UTC'ye kadar geçerli Tahmin
Rüzgar güney/güneybatıdan 11 kt ve 18 kt'a kadar ani rüzgarlar
Görüş mesafesi: 10 km
5000 ft yükseklikte parçalı bulutlu
25000 ft yükseklikte parçalı çok bulutlu
Ayın 20'si saat 0000 UTC'den
Rüzgar güney/güneybatıdan 10 kt
Görüş mesafesi: 10 km
25000 ft yükseklikte parçalı bulutlu

TAF: KSOA 191720Z 1918/2018 20011G18KT P6SM SCT050 BKN250 FM200000 20010KT P6SM SCT250

4.000'den fazla havaalanı için hava durumu gözlemleri ve tahminleri (METAR ve TAF raporları).

Kullanılabilir istasyonlar harita üzerinde sarı ve kırmızı noktalarla gösterilir.

İstasyonun adını görmek için fareyi noktanın üzerinde gezdirin.

Sonrasında hava gözlem ve tahminlerini görmek için tıklayın.

Haritayı değiştirmek için: yaklaştırmak için siyah artı işaretli yeşil düğmeye ve uzaklaştırmak için de eksi işaretli düğmeye hızla tıklayın; bitişik haritalar için yeşil okları kullanın.


METAR-TAF: